Time,TemperatureF,DewpointF,PressureIn,WindDirection,WindDirectionDegrees,WindSpeedMPH,WindSpeedGustMPH,Humidity,HourlyPrecipIn,Conditions,Clouds,dailyrainin,SoftwareType,DateUTC
2013-12-13 00:12:00,14.0,11.0,30.13,WSW,242,0.0,0.0,88,0.00,,,0.01,,2013-12-13 06:12:00,
2013-12-13 00:21:00,15.0,12.0,30.12,WSW,242,0.0,0.0,88,0.00,,,0.01,,2013-12-13 06:21:00,
2013-12-13 00:42:00,14.0,11.0,30.12,WSW,242,0.0,0.0,87,0.00,,,0.01,,2013-12-13 06:42:00,
2013-12-13 00:52:00,13.0,10.0,30.11,WSW,242,0.0,0.0,87,0.00,,,0.01,,2013-12-13 06:52:00,
2013-12-13 01:11:00,13.0,10.0,30.11,WSW,242,0.0,0.0,88,0.00,,,0.01,,2013-12-13 07:11:00,
2013-12-13 01:22:00,13.0,10.0,30.11,WSW,242,0.0,0.0,88,0.00,,,0.01,,2013-12-13 07:22:00,
2013-12-13 01:42:00,13.0,10.0,30.10,WSW,242,0.0,0.0,88,0.00,,,0.01,,2013-12-13 07:42:00,
2013-12-13 01:52:00,13.0,10.0,30.09,WSW,242,0.0,0.0,88,0.00,,,0.01,,2013-12-13 07:52:00,
2013-12-13 02:11:00,12.0,9.0,30.08,WSW,242,0.0,0.0,88,0.00,,,0.01,,2013-12-13 08:11:00,
2013-12-13 02:22:00,12.0,9.0,30.09,WSW,242,0.0,0.0,88,0.00,,,0.01,,2013-12-13 08:22:00,
2013-12-13 02:42:00,12.0,9.0,30.08,WSW,242,0.0,0.0,88,0.00,,,0.01,,2013-12-13 08:42:00,
2013-12-13 02:52:00,12.0,9.0,30.07,WSW,242,0.0,0.0,87,0.00,,,0.01,,2013-12-13 08:52:00,
2013-12-13 03:12:00,11.0,8.0,30.06,WSW,242,0.0,0.0,87,0.00,,,0.01,,2013-12-13 09:12:00,
2013-12-13 03:22:00,11.0,8.0,30.06,WSW,242,0.0,0.0,87,0.00,,,0.01,,2013-12-13 09:22:00,
2013-12-13 03:43:00,11.0,8.0,30.05,WSW,242,0.0,0.0,87,0.00,,,0.01,,2013-12-13 09:43:00,
2013-12-13 03:53:00,11.0,8.0,30.04,WSW,242,0.0,0.0,87,0.00,,,0.01,,2013-12-13 09:53:00,
2013-12-13 04:12:00,10.0,7.0,30.04,WSW,242,0.0,0.0,87,0.00,,,0.01,,2013-12-13 10:12:00,
2013-12-13 04:23:00,10.0,7.0,30.03,WSW,242,0.0,1.0,87,0.00,,,0.01,,2013-12-13 10:23:00,
2013-12-13 04:43:00,10.0,7.0,30.03,WSW,242,0.0,0.0,87,0.00,,,0.01,,2013-12-13 10:43:00,
2013-12-13 04:53:00,10.0,7.0,30.03,WSW,242,0.0,0.0,87,0.00,,,0.01,,2013-12-13 10:53:00,
2013-12-13 05:12:00,10.0,7.0,30.02,WSW,242,0.0,0.0,87,0.00,,,0.01,,2013-12-13 11:12:00,
2013-12-13 05:22:00,10.0,7.0,30.02,WSW,242,0.0,0.0,87,0.00,,,0.01,,2013-12-13 11:22:00,
2013-12-13 05:42:00,10.0,7.0,30.01,WSW,242,0.0,0.0,88,0.00,,,0.01,,2013-12-13 11:42:00,
2013-12-13 05:53:00,10.0,7.0,30.00,WSW,242,0.0,0.0,88,0.00,,,0.01,,2013-12-13 11:53:00,
2013-12-13 06:12:00,11.0,8.0,30.00,WSW,242,0.0,0.0,88,0.00,,,0.01,,2013-12-13 12:12:00,
2013-12-13 06:42:00,10.0,7.0,29.99,WSW,242,0.0,0.0,86,0.00,,,0.01,,2013-12-13 12:42:00,
2013-12-13 06:53:00,9.0,6.0,29.99,WSW,242,0.0,0.0,86,0.00,,,0.01,,2013-12-13 12:53:00,
2013-12-13 07:12:00,9.0,6.0,29.99,WSW,242,0.0,0.0,87,0.00,,,0.01,,2013-12-13 13:12:00,
2013-12-13 07:22:00,10.0,7.0,29.99,WSW,242,0.0,1.0,89,0.00,,,0.01,,2013-12-13 13:22:00,
2013-12-13 07:42:00,11.0,8.0,30.00,WSW,243,0.0,0.0,88,0.00,,,0.01,,2013-12-13 13:42:00,
2013-12-13 07:52:00,11.0,8.0,30.01,WSW,243,0.0,0.0,87,0.00,,,0.01,,2013-12-13 13:52:00,
2013-12-13 08:11:00,10.0,7.0,30.00,WSW,243,0.0,1.0,86,0.00,,,0.01,,2013-12-13 14:11:00,
2013-12-13 08:22:00,10.0,7.0,30.00,WSW,242,0.0,1.0,87,0.00,,,0.01,,2013-12-13 14:22:00,
2013-12-13 08:42:00,10.0,7.0,29.99,WSW,243,0.0,0.0,87,0.00,,,0.01,,2013-12-13 14:42:00,
2013-12-13 08:52:00,10.0,7.0,29.99,WSW,243,0.0,0.0,87,0.00,,,0.01,,2013-12-13 14:52:00,
2013-12-13 09:22:00,10.0,7.0,29.99,WSW,243,0.0,0.0,87,0.00,,,0.01,,2013-12-13 15:22:00,
2013-12-13 09:44:00,11.0,8.0,29.99,WSW,243,0.0,0.0,87,0.00,,,0.01,,2013-12-13 15:44:00,
2013-12-13 09:53:00,11.0,8.0,29.99,WSW,243,0.0,0.0,86,0.00,,,0.01,,2013-12-13 15:53:00,
2013-12-13 10:13:00,11.0,8.0,30.00,WSW,243,0.0,0.0,87,0.00,,,0.01,,2013-12-13 16:13:00,
2013-12-13 10:23:00,12.0,9.0,30.00,WSW,243,0.0,0.0,87,0.00,,,0.01,,2013-12-13 16:23:00,
2013-12-13 10:43:00,13.0,10.0,30.00,WSW,243,0.0,0.0,87,0.00,,,0.01,,2013-12-13 16:43:00,
2013-12-13 10:53:00,14.0,11.0,29.99,West,261,0.0,1.0,86,0.00,,,0.01,,2013-12-13 16:53:00,
2013-12-13 11:12:00,16.0,13.0,29.99,WSW,258,0.0,1.0,88,0.00,,,0.01,,2013-12-13 17:12:00,
2013-12-13 11:22:00,18.0,15.0,29.99,West,259,0.0,0.0,87,0.00,,,0.01,,2013-12-13 17:22:00,
2013-12-13 11:33:00,18.0,15.0,29.99,West,259,0.0,0.0,87,0.00,,,0.01,,2013-12-13 17:33:00,
2013-12-13 11:43:00,18.0,15.0,29.99,West,259,0.0,0.0,87,0.00,,,0.01,,2013-12-13 17:43:00,
2013-12-13 11:52:00,21.0,17.0,29.97,WNW,296,0.0,3.0,85,0.00,,,0.01,,2013-12-13 17:52:00,
2013-12-13 12:12:00,21.0,17.0,29.96,WNW,302,0.0,3.0,84,0.00,,,0.01,,2013-12-13 18:12:00,
2013-12-13 12:22:00,22.0,18.0,29.96,NNE,32,1.0,4.0,85,0.00,,,0.01,,2013-12-13 18:22:00,
2013-12-13 12:42:00,24.0,20.0,29.95,North,5,2.0,5.0,84,0.00,,,0.01,,2013-12-13 18:42:00,
2013-12-13 12:52:00,25.0,20.0,29.95,North,360,3.0,5.0,82,0.00,,,0.01,,2013-12-13 18:52:00,
2013-12-13 13:12:00,26.0,21.0,29.94,North,355,3.0,6.0,81,0.00,,,0.01,,2013-12-13 19:12:00,
2013-12-13 13:22:00,27.0,22.0,29.94,NNW,344,3.0,6.0,81,0.00,,,0.01,,2013-12-13 19:22:00,
2013-12-13 13:42:00,27.0,22.0,29.94,North,5,3.0,6.0,80,0.00,,,0.01,,2013-12-13 19:42:00,
2013-12-13 13:52:00,29.0,23.0,29.93,NNE,27,2.0,5.0,78,0.00,,,0.01,,2013-12-13 19:52:00,
2013-12-13 14:12:00,29.0,23.0,29.93,ENE,57,2.0,5.0,77,0.00,,,0.01,,2013-12-13 20:12:00,
2013-12-13 14:22:00,29.0,23.0,29.93,NE,55,2.0,6.0,77,0.00,,,0.01,,2013-12-13 20:22:00,
2013-12-13 14:42:00,30.0,23.0,29.93,NE,38,3.0,6.0,76,0.00,,,0.01,,2013-12-13 20:42:00,
2013-12-13 14:52:00,30.0,23.0,29.93,NNE,33,2.0,7.0,75,0.00,,,0.01,,2013-12-13 20:52:00,
2013-12-13 15:11:00,30.0,23.0,29.93,NNE,26,3.0,7.0,75,0.00,,,0.01,,2013-12-13 21:11:00,
2013-12-13 15:21:00,30.0,23.0,29.93,NNE,26,3.0,8.0,76,0.00,,,0.01,,2013-12-13 21:21:00,
2013-12-13 15:53:00,30.0,23.0,29.95,NE,38,2.0,7.0,75,0.00,,,0.01,,2013-12-13 21:53:00,
2013-12-13 16:13:00,30.0,23.0,29.95,NNE,26,3.0,7.0,76,0.00,,,0.00,,2013-12-13 22:13:00,
2013-12-13 16:23:00,30.0,23.0,29.96,ENE,57,4.0,9.0,76,0.00,,,0.00,,2013-12-13 22:23:00,
2013-12-13 16:42:00,30.0,24.0,29.97,NNE,29,2.0,6.0,77,0.00,,,0.00,,2013-12-13 22:42:00,
2013-12-13 16:53:00,30.0,24.0,29.98,NE,48,0.0,5.0,77,0.00,,,0.00,,2013-12-13 22:53:00,
2013-12-13 17:12:00,30.0,24.0,29.98,NE,54,1.0,3.0,78,0.00,,,0.00,,2013-12-13 23:12:00,
2013-12-13 17:22:00,30.0,24.0,29.99,North,355,5.0,10.0,79,0.00,,,0.00,,2013-12-13 23:22:00,
2013-12-13 17:42:00,29.0,24.0,30.01,East,92,4.0,10.0,80,0.00,,,0.00,,2013-12-13 23:42:00,
2013-12-13 17:53:00,28.0,23.0,30.01,North,5,4.0,9.0,81,0.00,,,0.00,,2013-12-13 23:53:00,
2013-12-13 18:11:00,28.0,23.0,30.02,NNE,26,4.0,8.0,81,0.00,,,0.00,,2013-12-14 00:11:00,
2013-12-13 18:21:00,27.0,22.0,30.02,North,5,3.0,9.0,82,0.00,,,0.00,,2013-12-14 00:21:00,
2013-12-13 18:42:00,27.0,22.0,30.02,NE,46,3.0,7.0,82,0.00,,,0.00,,2013-12-14 00:42:00,
2013-12-13 18:52:00,26.0,22.0,30.03,NNE,12,3.0,6.0,83,0.00,,,0.00,,2013-12-14 00:52:00,
2013-12-13 19:11:00,26.0,22.0,30.04,NE,43,3.0,7.0,84,0.00,,,0.00,,2013-12-14 01:11:00,
2013-12-13 19:22:00,26.0,22.0,30.05,North,360,3.0,10.0,85,0.00,,,0.00,,2013-12-14 01:22:00,
2013-12-13 19:52:00,26.0,22.0,30.08,NNE,21,5.0,10.0,86,0.00,,,0.00,,2013-12-14 01:52:00,
2013-12-13 20:12:00,26.0,22.0,30.09,NNW,330,6.0,14.0,85,0.00,,,0.00,,2013-12-14 02:12:00,
2013-12-13 20:22:00,25.0,21.0,30.10,North,360,7.0,13.0,86,0.00,,,0.00,,2013-12-14 02:22:00,
2013-12-13 20:42:00,24.0,20.0,30.11,ENE,71,8.0,13.0,85,0.00,,,0.00,,2013-12-14 02:42:00,
2013-12-13 20:52:00,23.0,19.0,30.11,NNW,348,5.0,15.0,85,0.00,,,0.00,,2013-12-14 02:52:00,
2013-12-13 21:12:00,23.0,19.0,30.12,NNE,28,7.0,14.0,85,0.00,,,0.00,,2013-12-14 03:12:00,
2013-12-13 21:22:00,23.0,19.0,30.13,NE,34,6.0,14.0,86,0.00,,,0.00,,2013-12-14 03:22:00,
2013-12-13 21:43:00,23.0,19.0,30.13,NNW,337,5.0,12.0,86,0.00,,,0.00,,2013-12-14 03:43:00,
2013-12-13 21:54:00,22.0,18.0,30.14,NE,51,7.0,15.0,86,0.00,,,0.00,,2013-12-14 03:54:00,
2013-12-13 22:13:00,22.0,18.0,30.14,North,355,8.0,13.0,86,0.00,,,0.00,,2013-12-14 04:13:00,
2013-12-13 22:23:00,21.0,18.0,30.15,NNE,30,6.0,13.0,87,0.00,,,0.00,,2013-12-14 04:23:00,
2013-12-13 22:43:00,21.0,18.0,30.16,North,360,7.0,15.0,87,0.00,,,0.00,,2013-12-14 04:43:00,
2013-12-13 22:53:00,21.0,18.0,30.16,NNW,345,7.0,14.0,87,0.00,,,0.00,,2013-12-14 04:53:00,
2013-12-13 23:12:00,21.0,18.0,30.17,NNW,332,6.0,17.0,87,0.00,,,0.00,,2013-12-14 05:12:00,
2013-12-13 23:22:00,21.0,18.0,30.17,North,9,6.0,14.0,87,0.00,,,0.00,,2013-12-14 05:22:00,
2013-12-13 23:42:00,21.0,18.0,30.18,North,5,7.0,13.0,87,0.00,,,0.00,,2013-12-14 05:42:00,
2013-12-13 23:52:00,20.0,17.0,30.19,North,5,8.0,16.0,87,0.00,,,0.00,,2013-12-14 05:52:00,